createdAt,value
2024-03-15T00:00:20.470Z,94243.28
2024-03-15T00:03:25.578Z,94246.00
2024-03-15T00:06:29.683Z,94247.00
2024-03-15T00:09:34.362Z,94242.28
2024-03-15T00:12:38.091Z,94248.78
2024-03-15T00:15:41.829Z,94252.88
2024-03-15T00:18:45.770Z,94258.84
2024-03-15T00:21:50.079Z,94257.56
2024-03-15T00:24:53.494Z,94260.16
2024-03-15T00:27:57.264Z,94241.53
2024-03-15T00:31:02.056Z,94253.13
2024-03-15T00:34:06.628Z,94247.31
2024-03-15T00:37:10.621Z,94247.31
2024-03-15T00:40:14.158Z,94251.59
2024-03-15T00:43:18.798Z,94258.28
2024-03-15T00:46:23.788Z,94263.66
2024-03-15T00:49:27.394Z,94256.38
2024-03-15T00:52:30.919Z,94256.19
2024-03-15T00:55:35.189Z,94257.88
2024-03-15T00:58:39.044Z,94250.19
2024-03-15T01:01:44.279Z,94251.69
2024-03-15T01:04:47.746Z,94250.72
2024-03-15T01:07:52.285Z,94242.50
2024-03-15T01:10:56.150Z,94252.50
2024-03-15T01:14:00.382Z,94243.31
2024-03-15T01:17:03.889Z,94237.13
2024-03-15T01:20:09.982Z,94235.06
2024-03-15T01:23:13.557Z,94229.56
2024-03-15T01:26:17.429Z,94233.97
2024-03-15T01:29:21.032Z,94233.00
2024-03-15T01:32:24.697Z,94232.13
2024-03-15T01:35:34.073Z,94223.25
2024-03-15T01:38:37.617Z,94223.09
2024-03-15T01:41:41.831Z,94216.47
2024-03-15T01:44:54.034Z,94221.34
2024-03-15T01:47:58.708Z,94217.31
2024-03-15T01:51:02.387Z,94205.97
2024-03-15T01:54:06.202Z,94217.31
2024-03-15T01:57:10.467Z,94209.75
2024-03-15T02:00:15.526Z,94208.53
2024-03-15T02:03:19.088Z,94205.88
2024-03-15T02:06:23.401Z,94212.09
2024-03-15T02:09:30.497Z,94204.91
2024-03-15T02:12:35.163Z,94199.13
2024-03-15T02:15:38.677Z,94189.16
2024-03-15T02:18:42.429Z,94188.06
2024-03-15T02:21:52.195Z,94187.69
2024-03-15T02:24:55.701Z,94187.88
2024-03-15T02:27:59.328Z,94170.84
2024-03-15T02:31:03.118Z,94184.78
2024-03-15T02:34:06.728Z,94176.97
2024-03-15T02:37:10.273Z,94180.03
2024-03-15T02:40:14.377Z,94177.34
2024-03-15T02:43:19.289Z,94174.66
2024-03-15T02:46:22.809Z,94160.25
2024-03-15T02:49:26.151Z,94160.56
2024-03-15T02:52:30.520Z,94150.34
2024-03-15T02:55:34.212Z,94150.28
2024-03-15T02:58:38.129Z,94143.25
2024-03-15T03:01:42.299Z,94145.66
2024-03-15T03:04:45.848Z,94138.78
2024-03-15T03:07:51.394Z,94140.41
2024-03-15T03:10:55.554Z,94138.91
2024-03-15T03:14:00.405Z,94128.66
2024-03-15T03:17:04.180Z,94135.00
2024-03-15T03:20:20.503Z,94127.97
2024-03-15T03:23:25.656Z,94125.09
2024-03-15T03:26:29.590Z,94111.44
2024-03-15T03:29:33.216Z,94116.38
2024-03-15T03:32:39.334Z,94107.34
2024-03-15T03:35:43.094Z,94110.84
2024-03-15T03:38:46.761Z,94109.28
2024-03-15T03:41:50.590Z,94105.78
2024-03-15T03:44:54.312Z,94103.25
2024-03-15T03:47:58.153Z,94099.78
2024-03-15T03:51:04.414Z,94099.81
2024-03-15T03:54:08.368Z,94089.22
2024-03-15T03:57:38.696Z,94089.53
2024-03-15T04:00:48.215Z,94086.09
2024-03-15T04:03:51.828Z,94084.59
2024-03-15T04:06:55.528Z,94073.94
2024-03-15T04:09:59.659Z,94068.13
2024-03-15T04:13:03.242Z,94072.72
2024-03-15T04:16:08.432Z,94073.00
2024-03-15T04:19:11.985Z,94062.78
2024-03-15T04:22:15.951Z,94049.19
2024-03-15T04:25:21.793Z,94053.09
2024-03-15T04:28:26.758Z,94047.69
2024-03-15T04:31:33.459Z,94049.78
2024-03-15T04:34:39.091Z,94053.91
2024-03-15T04:37:42.733Z,94052.09
2024-03-15T04:40:47.240Z,94047.69
2024-03-15T04:43:51.567Z,94049.22
2024-03-15T04:46:54.928Z,94045.72
2024-03-15T04:50:00.999Z,94047.66
2024-03-15T04:53:05.192Z,94050.03
2024-03-15T04:56:09.346Z,94041.31
2024-03-15T04:59:13.177Z,94044.34
2024-03-15T05:02:16.993Z,94033.09
2024-03-15T05:05:23.561Z,94039.81
2024-03-15T05:08:28.648Z,94033.97
2024-03-15T05:11:32.130Z,94029.53
2024-03-15T05:14:35.635Z,94024.75
2024-03-15T05:17:40.828Z,94018.22
2024-03-15T05:20:44.702Z,94017.94
2024-03-15T05:23:49.101Z,94012.91
2024-03-15T05:26:52.820Z,94005.78
2024-03-15T05:29:56.707Z,94003.78
2024-03-15T05:33:00.024Z,93998.94
2024-03-15T05:36:05.336Z,94000.25
2024-03-15T05:39:12.797Z,94000.31
2024-03-15T05:42:17.072Z,93998.19
2024-03-15T05:45:22.897Z,94006.97
2024-03-15T05:48:26.528Z,93994.38
2024-03-15T05:51:30.487Z,93989.34
2024-03-15T05:54:34.068Z,93980.53
2024-03-15T05:57:37.510Z,93977.13
2024-03-15T06:00:41.262Z,93971.66
2024-03-15T06:03:45.220Z,93973.53
2024-03-15T06:06:49.092Z,93973.31
2024-03-15T06:09:52.697Z,93967.13
2024-03-15T06:12:57.176Z,93961.84
2024-03-15T06:16:00.800Z,93955.81
2024-03-15T06:19:06.355Z,93963.72
2024-03-15T06:22:10.028Z,93959.72
2024-03-15T06:25:13.569Z,93962.06
2024-03-15T06:28:17.245Z,93963.88
2024-03-15T06:31:21.197Z,93951.59
2024-03-15T06:34:25.559Z,93952.16
2024-03-15T06:37:29.413Z,93947.94
2024-03-15T06:40:33.059Z,93947.25
2024-03-15T06:43:55.740Z,93942.38
2024-03-15T06:47:11.422Z,93936.75
2024-03-15T06:50:15.167Z,93933.88
2024-03-15T06:53:21.865Z,93931.47
2024-03-15T06:56:25.737Z,93926.38
2024-03-15T06:59:29.473Z,93923.50
2024-03-15T07:02:33.613Z,93922.09
2024-03-15T07:05:37.239Z,93929.41
2024-03-15T07:08:41.526Z,93925.25
2024-03-15T07:11:49.932Z,93931.78
2024-03-15T07:14:54.830Z,93930.31
2024-03-15T07:18:06.717Z,93928.94
2024-03-15T07:21:13.391Z,93926.63
2024-03-15T07:24:17.043Z,93933.00
2024-03-15T07:27:21.129Z,93934.03
2024-03-15T07:30:26.276Z,93933.56
2024-03-15T07:33:29.786Z,93927.09
2024-03-15T07:36:34.259Z,93933.75
2024-03-15T07:39:38.064Z,93929.25
2024-03-15T07:42:43.550Z,93924.16
2024-03-15T07:45:50.049Z,93928.44
2024-03-15T07:48:53.653Z,93923.03
2024-03-15T07:51:58.061Z,93918.09
2024-03-15T07:55:01.787Z,93914.84
2024-03-15T07:58:05.553Z,93909.16
2024-03-15T08:01:12.331Z,93911.06
2024-03-15T08:04:16.227Z,93907.94
2024-03-15T08:07:21.911Z,93906.19
2024-03-15T08:10:25.404Z,93902.88
2024-03-15T08:13:30.632Z,93902.38
2024-03-15T08:16:37.244Z,93895.13
2024-03-15T08:19:41.465Z,93896.50
2024-03-15T08:22:44.927Z,93888.56
2024-03-15T08:25:48.561Z,93887.50
2024-03-15T08:28:52.694Z,93889.09
2024-03-15T08:31:56.572Z,93894.59
2024-03-15T08:35:00.656Z,93886.97
2024-03-15T08:38:04.836Z,93887.66
2024-03-15T08:44:13.202Z,93891.09
2024-03-15T08:47:20.134Z,93893.34
2024-03-15T08:50:23.776Z,93890.59
2024-03-15T08:53:28.028Z,93893.25
2024-03-15T08:56:31.397Z,93894.53
2024-03-15T08:59:35.838Z,93903.75
2024-03-15T09:02:39.983Z,93901.47
2024-03-15T09:05:43.578Z,93898.03
2024-03-15T09:08:56.229Z,93893.78
2024-03-15T09:12:00.436Z,93895.44
2024-03-15T09:15:04.715Z,93897.69
2024-03-15T09:18:10.757Z,93892.75
2024-03-15T09:21:14.534Z,93898.41
2024-03-15T09:24:19.946Z,93893.81
2024-03-15T09:27:23.769Z,93896.94
2024-03-15T09:30:31.178Z,93894.19
2024-03-15T09:33:37.286Z,93899.25
2024-03-15T09:36:41.073Z,93901.69
2024-03-15T09:39:44.793Z,93902.84
2024-03-15T09:42:53.414Z,93907.56
2024-03-15T09:45:57.812Z,93907.91
2024-03-15T09:49:02.267Z,93908.88
2024-03-15T09:52:09.106Z,93909.13
2024-03-15T09:55:24.569Z,93904.88
2024-03-15T09:58:28.567Z,93910.91
2024-03-15T10:01:34.533Z,93907.91
2024-03-15T10:04:38.516Z,93908.03
2024-03-15T10:07:42.213Z,93909.69
2024-03-15T10:10:47.267Z,93908.53
2024-03-15T10:13:51.223Z,93908.41
2024-03-15T10:16:55.277Z,93903.72
2024-03-15T10:19:59.934Z,93902.66
2024-03-15T10:23:04.509Z,93913.13
2024-03-15T10:26:09.204Z,93915.88
2024-03-15T10:29:13.503Z,93913.81
2024-03-15T10:32:16.997Z,93912.09
2024-03-15T10:35:21.264Z,93914.94
2024-03-15T10:38:24.628Z,93915.19
2024-03-15T10:41:29.292Z,93910.34
2024-03-15T10:44:34.581Z,93915.88
2024-03-15T10:47:38.096Z,93912.38
2024-03-15T10:50:44.738Z,93915.81
2024-03-15T10:53:50.571Z,93918.13
2024-03-15T10:56:54.153Z,93915.47
2024-03-15T10:59:58.525Z,93918.53
2024-03-15T11:03:27.367Z,93915.09
2024-03-15T11:06:47.447Z,93909.19
2024-03-15T11:09:56.122Z,93915.38
2024-03-15T11:13:03.333Z,93920.53
2024-03-15T11:16:20.502Z,93912.94
2024-03-15T11:19:24.368Z,93912.00
2024-03-15T11:22:28.440Z,93911.06
2024-03-15T11:25:34.440Z,93915.72
2024-03-15T11:28:40.137Z,93916.28
2024-03-15T11:31:47.533Z,93917.53
2024-03-15T11:34:51.736Z,93913.25
2024-03-15T11:37:57.977Z,93903.84
2024-03-15T11:41:02.429Z,93912.22
2024-03-15T11:44:06.129Z,93906.00
2024-03-15T11:47:10.960Z,93904.88
2024-03-15T11:50:18.131Z,93910.03
2024-03-15T11:53:24.140Z,93906.69
2024-03-15T11:56:27.834Z,93905.06
2024-03-15T11:59:50.231Z,93909.09
2024-03-15T12:02:58.566Z,93915.09
2024-03-15T12:06:02.566Z,93915.53
2024-03-15T12:09:06.134Z,93924.88
2024-03-15T12:12:09.696Z,93926.28
2024-03-15T12:15:31.969Z,93922.84
2024-03-15T12:18:36.482Z,93930.22
2024-03-15T12:21:42.170Z,93935.22
2024-03-15T12:24:45.535Z,93931.66
2024-03-15T12:27:49.693Z,93938.75
2024-03-15T12:30:55.257Z,93936.09
2024-03-15T12:33:58.796Z,93930.53
2024-03-15T12:37:02.274Z,93938.19
2024-03-15T12:40:19.078Z,93927.56
2024-03-15T12:43:22.540Z,93934.91
2024-03-15T12:46:25.973Z,93937.28
2024-03-15T12:49:29.573Z,93933.28
2024-03-15T12:52:34.641Z,93933.00
2024-03-15T12:55:38.114Z,93929.81
2024-03-15T12:58:41.558Z,93931.63
2024-03-15T13:01:45.267Z,93933.56
2024-03-15T13:04:48.769Z,93937.31
2024-03-15T13:07:55.117Z,93939.53
2024-03-15T13:10:58.619Z,93947.97
2024-03-15T13:14:02.298Z,93940.53
2024-03-15T13:17:05.879Z,93945.63
2024-03-15T13:20:17.453Z,93944.13
2024-03-15T13:23:21.001Z,93939.97
2024-03-15T13:26:27.524Z,93934.44
2024-03-15T13:29:30.890Z,93937.91
2024-03-15T13:32:34.411Z,93941.50
2024-03-15T13:35:38.958Z,93951.75
2024-03-15T13:38:43.934Z,93943.88
2024-03-15T13:41:48.142Z,93946.91
2024-03-15T13:44:51.568Z,93936.53
2024-03-15T13:48:16.773Z,93936.22
2024-03-15T13:51:20.388Z,93929.47
2024-03-15T13:54:23.964Z,93942.75
2024-03-15T13:57:27.866Z,93948.16
2024-03-15T14:00:34.865Z,93953.00
2024-03-15T14:03:38.795Z,93954.53
2024-03-15T14:06:43.345Z,93949.69
2024-03-15T14:09:46.787Z,93950.38
2024-03-15T14:12:52.725Z,93943.75
2024-03-15T14:15:57.014Z,93948.03
2024-03-15T14:19:04.083Z,93945.00
2024-03-15T14:22:11.532Z,93936.13
2024-03-15T14:25:18.117Z,93934.34
2024-03-15T14:28:21.765Z,93932.41
2024-03-15T14:31:25.571Z,93921.22
2024-03-15T14:34:28.892Z,93915.66
2024-03-15T14:37:32.441Z,93907.78
2024-03-15T14:40:40.448Z,93904.47
2024-03-15T14:43:44.328Z,93903.09
2024-03-15T14:46:48.782Z,93910.16
2024-03-15T14:49:52.531Z,93898.66
2024-03-15T14:52:56.917Z,93900.75
2024-03-15T14:56:00.776Z,93901.13
2024-03-15T14:59:06.499Z,93896.00
2024-03-15T15:02:10.230Z,93897.94
2024-03-15T15:05:14.018Z,93899.34
2024-03-15T15:08:17.621Z,93908.28
2024-03-15T15:11:21.170Z,93899.59
2024-03-15T15:14:28.789Z,93897.66
2024-03-15T15:17:32.567Z,93887.00
2024-03-15T15:20:36.206Z,93885.50
2024-03-15T15:23:40.109Z,93882.69
2024-03-15T15:26:43.575Z,93882.53
2024-03-15T15:29:47.378Z,93879.09
2024-03-15T15:32:51.069Z,93874.25
2024-03-15T15:35:54.474Z,93872.56
2024-03-15T15:38:58.047Z,93873.56
2024-03-15T15:42:01.589Z,93878.41
2024-03-15T15:45:05.334Z,93876.03
2024-03-15T15:48:09.784Z,93873.94
2024-03-15T15:51:16.127Z,93865.38
2024-03-15T15:54:19.645Z,93873.81
2024-03-15T15:57:23.624Z,93866.34
2024-03-15T16:00:27.257Z,93870.22
2024-03-15T16:03:31.234Z,93871.72
2024-03-15T16:06:34.821Z,93863.72
2024-03-15T16:09:38.406Z,93862.47
2024-03-15T16:12:42.482Z,93858.84
2024-03-15T16:15:47.337Z,93861.88
2024-03-15T16:18:51.659Z,93862.19
2024-03-15T16:21:55.502Z,93866.91
2024-03-15T16:24:59.680Z,93857.66
2024-03-15T16:28:06.674Z,93863.88
2024-03-15T16:31:10.247Z,93856.41
2024-03-15T16:34:13.929Z,93857.66
2024-03-15T16:37:18.363Z,93856.66
2024-03-15T16:40:24.075Z,93851.84
2024-03-15T16:43:28.459Z,93857.34
2024-03-15T16:46:32.095Z,93851.66
2024-03-15T16:49:35.584Z,93844.75
2024-03-15T16:52:39.250Z,93841.28
2024-03-15T16:55:43.985Z,93828.72
2024-03-15T16:58:48.795Z,93825.66
2024-03-15T17:01:52.319Z,93832.16
2024-03-15T17:04:56.060Z,93822.75
2024-03-15T17:08:00.054Z,93824.38
2024-03-15T17:11:04.527Z,93823.00
2024-03-15T17:14:08.342Z,93813.19
2024-03-15T17:17:12.698Z,93826.16
2024-03-15T17:20:18.121Z,93826.59
2024-03-15T17:23:22.616Z,93830.16
2024-03-15T17:26:26.526Z,93829.44
2024-03-15T17:29:30.298Z,93827.38
2024-03-15T17:32:33.873Z,93830.16
2024-03-15T17:35:37.505Z,93826.94
2024-03-15T17:38:42.323Z,93825.28
2024-03-15T17:41:45.795Z,93832.84
2024-03-15T17:44:50.108Z,93832.94
2024-03-15T17:47:54.280Z,93829.97
2024-03-15T17:50:57.917Z,93828.00
2024-03-15T17:54:01.573Z,93826.28
2024-03-15T17:57:05.080Z,93812.91
2024-03-15T18:00:14.589Z,93816.59
2024-03-15T18:03:18.304Z,93804.34
2024-03-15T18:06:21.990Z,93805.88
2024-03-15T18:09:28.066Z,93795.16
2024-03-15T18:12:31.638Z,93792.38
2024-03-15T18:15:34.954Z,93786.84
2024-03-15T18:18:39.109Z,93787.94
2024-03-15T18:21:42.850Z,93788.22
2024-03-15T18:24:49.827Z,93782.97
2024-03-15T18:27:55.157Z,93782.84
2024-03-15T18:31:01.716Z,93781.47
2024-03-15T18:34:05.783Z,93779.38
2024-03-15T18:37:11.230Z,93773.69
2024-03-15T18:40:15.130Z,93787.19
2024-03-15T18:43:19.055Z,93785.97
2024-03-15T18:46:23.089Z,93791.97
2024-03-15T18:49:27.122Z,93790.09
2024-03-15T18:52:30.949Z,93784.19
2024-03-15T18:55:34.626Z,93789.41
2024-03-15T18:58:38.754Z,93787.19
2024-03-15T19:01:42.360Z,93780.28
2024-03-15T19:04:48.942Z,93785.34
2024-03-15T19:07:52.565Z,93786.31
2024-03-15T19:10:56.344Z,93781.75
2024-03-15T19:14:01.336Z,93781.34
2024-03-15T19:17:05.069Z,93781.75
2024-03-15T19:20:10.905Z,93784.09
2024-03-15T19:23:14.673Z,93777.69
2024-03-15T19:26:18.239Z,93776.53
2024-03-15T19:29:23.398Z,93769.22
2024-03-15T19:32:32.301Z,93768.53
2024-03-15T19:35:36.082Z,93776.38
2024-03-15T19:38:39.669Z,93771.69
2024-03-15T19:41:43.237Z,93773.47
2024-03-15T19:44:47.685Z,93769.63
2024-03-15T19:47:51.058Z,93767.38
2024-03-15T19:50:54.541Z,93764.75
2024-03-15T19:53:58.111Z,93755.50
2024-03-15T19:57:01.535Z,93762.84
2024-03-15T20:00:07.098Z,93768.06
2024-03-15T20:03:15.163Z,93769.28
2024-03-15T20:06:19.182Z,93765.53
2024-03-15T20:09:22.658Z,93766.53
2024-03-15T20:12:26.390Z,93768.22
2024-03-15T20:15:30.198Z,93777.81
2024-03-15T20:18:34.912Z,93764.28
2024-03-15T20:21:39.658Z,93774.81
2024-03-15T20:24:43.106Z,93771.41
2024-03-15T20:27:48.250Z,93770.06
2024-03-15T20:30:53.833Z,93782.59
2024-03-15T20:33:57.872Z,93777.75
2024-03-15T20:37:01.445Z,93777.41
2024-03-15T20:40:07.545Z,93775.13
2024-03-15T20:43:12.318Z,93777.38
2024-03-15T20:46:15.974Z,93776.66
2024-03-15T20:49:21.835Z,93774.28
2024-03-15T20:52:25.862Z,93781.50
2024-03-15T20:55:29.521Z,93779.41
2024-03-15T20:58:32.960Z,93778.72
2024-03-15T21:01:36.513Z,93778.03
2024-03-15T21:04:40.271Z,93782.78
2024-03-15T21:07:43.973Z,93774.41
2024-03-15T21:10:52.695Z,93775.13
2024-03-15T21:13:56.282Z,93783.34
2024-03-15T21:17:00.780Z,93783.56
2024-03-15T21:20:06.825Z,93790.22
2024-03-15T21:23:10.175Z,93782.03
2024-03-15T21:26:13.944Z,93789.72
2024-03-15T21:29:17.309Z,93795.13
2024-03-15T21:32:20.806Z,93792.72
2024-03-15T21:35:24.828Z,93794.78
2024-03-15T21:38:29.220Z,93801.03
2024-03-15T21:41:33.708Z,93802.44
2024-03-15T21:44:43.783Z,93804.34
2024-03-15T21:47:50.041Z,93795.84
2024-03-15T21:50:54.701Z,93799.88
2024-03-15T21:53:58.811Z,93814.03
2024-03-15T21:57:02.390Z,93812.34
2024-03-15T22:00:07.048Z,93807.66
2024-03-15T22:03:15.958Z,93816.59
2024-03-15T22:06:19.614Z,93815.56
2024-03-15T22:09:23.286Z,93815.56
2024-03-15T22:12:26.969Z,93818.19
2024-03-15T22:15:33.645Z,93821.63
2024-03-15T22:18:37.141Z,93819.22
2024-03-15T22:21:40.913Z,93828.28
2024-03-15T22:24:44.922Z,93823.59
2024-03-15T22:27:48.564Z,93827.59
2024-03-15T22:30:52.194Z,93824.97
2024-03-15T22:33:55.819Z,93829.50
2024-03-15T22:37:02.801Z,93839.59
2024-03-15T22:40:06.941Z,93848.97
2024-03-15T22:43:10.750Z,93846.72
2024-03-15T22:46:14.509Z,93854.91
2024-03-15T22:49:18.156Z,93862.38
2024-03-15T22:52:21.841Z,93857.34
2024-03-15T22:55:25.491Z,93859.38
2024-03-15T22:58:29.376Z,93860.78
2024-03-15T23:01:39.627Z,93867.06
2024-03-15T23:04:43.320Z,93867.56
2024-03-15T23:07:46.685Z,93870.72
2024-03-15T23:10:50.825Z,93875.59
2024-03-15T23:13:54.400Z,93884.44
2024-03-15T23:17:01.198Z,93879.41
2024-03-15T23:20:07.068Z,93884.78
2024-03-15T23:23:11.315Z,93883.06
2024-03-15T23:26:14.950Z,93887.03
2024-03-15T23:29:18.728Z,93886.72
2024-03-15T23:32:22.241Z,93893.13
2024-03-15T23:35:25.892Z,93892.13
2024-03-15T23:38:29.367Z,93889.50
2024-03-15T23:41:34.159Z,93899.22
2024-03-15T23:44:40.989Z,93898.03
2024-03-15T23:47:45.119Z,93903.59
2024-03-15T23:50:48.530Z,93910.22
2024-03-15T23:53:52.168Z,93919.25
2024-03-15T23:56:55.789Z,93924.13
2024-03-15T23:59:59.393Z,93922.03
